createdAt,value
2023-06-19T00:00:48.418Z,85959.56
2023-06-19T00:03:14.631Z,85959.84
2023-06-19T00:05:40.819Z,85962.28
2023-06-19T00:08:06.984Z,85951.47
2023-06-19T00:10:33.138Z,85952.50
2023-06-19T00:12:59.281Z,85961.59
2023-06-19T00:15:25.443Z,85954.88
2023-06-19T00:17:51.607Z,85958.59
2023-06-19T00:20:17.759Z,85957.63
2023-06-19T00:22:43.934Z,85956.47
2023-06-19T00:25:10.079Z,85956.22
2023-06-19T00:27:36.208Z,85963.94
2023-06-19T00:30:02.343Z,85962.56
2023-06-19T00:32:28.491Z,85963.72
2023-06-19T00:34:54.674Z,85957.72
2023-06-19T00:37:20.831Z,85962.19
2023-06-19T00:39:46.972Z,85969.50
2023-06-19T00:42:13.111Z,85971.69
2023-06-19T00:44:39.266Z,85966.81
2023-06-19T00:47:05.459Z,85975.47
2023-06-19T00:49:31.665Z,85973.16
2023-06-19T00:51:57.831Z,85967.16
2023-06-19T00:54:23.976Z,85969.06
2023-06-19T00:56:50.126Z,85966.22
2023-06-19T00:59:16.279Z,85976.66
2023-06-19T01:01:42.447Z,85986.59
2023-06-19T01:04:08.801Z,85979.41
2023-06-19T01:06:35.030Z,85977.78
2023-06-19T01:09:01.196Z,85983.19
2023-06-19T01:11:27.920Z,85976.88
2023-06-19T01:13:54.284Z,85974.75
2023-06-19T01:16:20.450Z,85974.28
2023-06-19T01:18:46.611Z,85984.72
2023-06-19T01:21:12.764Z,85979.44
2023-06-19T01:23:38.932Z,85977.78
2023-06-19T01:26:05.080Z,85966.84
2023-06-19T01:28:31.253Z,85974.50
2023-06-19T01:30:57.378Z,85968.63
2023-06-19T01:33:23.529Z,85971.84
2023-06-19T01:35:49.708Z,85974.50
2023-06-19T01:38:15.872Z,85971.19
2023-06-19T01:40:42.018Z,85968.41
2023-06-19T01:43:08.208Z,85970.03
2023-06-19T01:45:34.373Z,85970.47
2023-06-19T01:48:00.570Z,85974.59
2023-06-19T01:50:26.801Z,85974.97
2023-06-19T01:52:52.942Z,85977.69
2023-06-19T01:55:19.081Z,85970.31
2023-06-19T01:57:45.237Z,85970.09
2023-06-19T02:00:11.474Z,85963.13
2023-06-19T02:02:37.724Z,85961.72
2023-06-19T02:05:03.967Z,85953.66
2023-06-19T02:07:30.128Z,85946.84
2023-06-19T02:09:56.263Z,85951.31
2023-06-19T02:12:22.436Z,85942.53
2023-06-19T02:14:48.603Z,85942.63
2023-06-19T02:17:14.755Z,85942.34
2023-06-19T02:19:40.914Z,85938.25
2023-06-19T02:22:07.071Z,85944.34
2023-06-19T02:24:33.338Z,85951.63
2023-06-19T02:26:59.515Z,85947.06
2023-06-19T02:29:25.641Z,85946.16
2023-06-19T02:31:51.794Z,85943.53
2023-06-19T02:34:17.966Z,85945.22
2023-06-19T02:36:44.141Z,85946.47
2023-06-19T02:39:10.272Z,85948.31
2023-06-19T02:41:36.416Z,85936.69
2023-06-19T02:44:02.563Z,85936.94
2023-06-19T02:46:28.932Z,85937.78
2023-06-19T02:48:55.127Z,85940.13
2023-06-19T02:51:21.284Z,85946.75
2023-06-19T02:53:47.421Z,85951.97
2023-06-19T02:56:13.581Z,85950.84
2023-06-19T02:58:39.738Z,85961.16
2023-06-19T03:01:05.947Z,85986.31
2023-06-19T03:03:32.213Z,85984.22
2023-06-19T03:05:58.496Z,85978.97
2023-06-19T03:08:24.637Z,85989.47
2023-06-19T03:10:50.789Z,85984.19
2023-06-19T03:13:16.957Z,85991.44
2023-06-19T03:15:43.120Z,85991.81
2023-06-19T03:18:09.360Z,85990.16
2023-06-19T03:20:35.628Z,85999.75
2023-06-19T03:23:01.791Z,85992.19
2023-06-19T03:25:27.974Z,85992.78
2023-06-19T03:27:54.165Z,85987.16
2023-06-19T03:30:20.330Z,85994.06
2023-06-19T03:32:46.532Z,85991.94
2023-06-19T03:35:12.718Z,85996.78
2023-06-19T03:37:38.866Z,85997.22
2023-06-19T03:40:05.015Z,86000.41
2023-06-19T03:42:31.161Z,85999.25
2023-06-19T03:44:57.307Z,85999.94
2023-06-19T03:47:23.501Z,86004.66
2023-06-19T03:49:49.670Z,86007.34
2023-06-19T03:52:15.808Z,86016.78
2023-06-19T03:54:41.955Z,86019.06
2023-06-19T03:57:08.097Z,86026.31
2023-06-19T03:59:34.258Z,86032.59
2023-06-19T04:02:01.003Z,86039.59
2023-06-19T04:04:27.314Z,86044.59
2023-06-19T04:06:53.478Z,86041.75
2023-06-19T04:09:19.650Z,86040.66
2023-06-19T04:11:45.792Z,86041.34
2023-06-19T04:14:11.946Z,86036.38
2023-06-19T04:16:38.129Z,86049.47
2023-06-19T04:19:04.270Z,86040.38
2023-06-19T04:21:30.413Z,86040.53
2023-06-19T04:23:56.589Z,86037.09
2023-06-19T04:26:22.763Z,86037.38
2023-06-19T04:28:48.930Z,86027.63
2023-06-19T04:31:15.076Z,86024.16
2023-06-19T04:33:41.250Z,86023.06
2023-06-19T04:36:07.656Z,86013.88
2023-06-19T04:38:33.817Z,86007.28
2023-06-19T04:41:00.010Z,86007.19
2023-06-19T04:43:26.213Z,86004.94
2023-06-19T04:45:52.385Z,86001.38
2023-06-19T04:48:18.671Z,86006.84
2023-06-19T04:50:44.901Z,86001.56
2023-06-19T04:53:11.051Z,86006.00
2023-06-19T04:55:37.220Z,86001.03
2023-06-19T04:58:03.361Z,85989.06
2023-06-19T05:00:29.567Z,85990.84
2023-06-19T05:02:55.775Z,85988.38
2023-06-19T05:05:24.458Z,85993.75
2023-06-19T05:07:50.964Z,85993.97
2023-06-19T05:10:17.139Z,85993.88
2023-06-19T05:12:43.321Z,85990.16
2023-06-19T05:15:09.468Z,85986.09
2023-06-19T05:17:35.666Z,85988.03
2023-06-19T05:20:01.845Z,85983.06
2023-06-19T05:22:28.102Z,85978.28
2023-06-19T05:24:54.339Z,85976.69
2023-06-19T05:27:20.502Z,85967.47
2023-06-19T05:29:46.641Z,85968.91
2023-06-19T05:32:12.792Z,85976.00
2023-06-19T05:34:38.993Z,85982.19
2023-06-19T05:37:05.242Z,85975.28
2023-06-19T05:39:31.431Z,85975.97
2023-06-19T05:41:57.630Z,85966.41
2023-06-19T05:44:24.051Z,85969.97
2023-06-19T05:46:50.206Z,85972.44
2023-06-19T05:49:16.347Z,85979.19
2023-06-19T05:51:42.484Z,85978.97
2023-06-19T05:54:08.646Z,85987.66
2023-06-19T05:56:34.846Z,85983.44
2023-06-19T05:59:01.028Z,85993.69
2023-06-19T06:01:27.220Z,85992.28
2023-06-19T06:03:53.420Z,86004.31
2023-06-19T06:06:19.589Z,86001.66
2023-06-19T06:08:45.750Z,86001.84
2023-06-19T06:11:11.936Z,85991.00
2023-06-19T06:13:38.210Z,85987.63
2023-06-19T06:16:04.343Z,85996.59
2023-06-19T06:18:30.509Z,85986.31
2023-06-19T06:20:56.698Z,85985.91
2023-06-19T06:23:22.874Z,85987.78
2023-06-19T06:25:49.044Z,85975.66
2023-06-19T06:28:15.206Z,85975.50
2023-06-19T06:30:41.376Z,85977.03
2023-06-19T06:33:07.547Z,85982.47
2023-06-19T06:35:33.732Z,85978.59
2023-06-19T06:37:59.874Z,85975.41
2023-06-19T06:40:26.264Z,85983.38
2023-06-19T06:42:52.638Z,85986.78
2023-06-19T06:45:18.808Z,85990.38
2023-06-19T06:47:45.027Z,85990.00
2023-06-19T06:50:11.216Z,85988.84
2023-06-19T06:52:37.385Z,85989.91
2023-06-19T06:55:03.548Z,85988.53
2023-06-19T06:57:29.771Z,85983.56
2023-06-19T06:59:55.923Z,85983.94
2023-06-19T07:02:22.155Z,85979.00
2023-06-19T07:04:48.327Z,85973.03
2023-06-19T07:07:15.545Z,85969.69
2023-06-19T07:09:41.720Z,85969.22
2023-06-19T07:12:07.881Z,85974.78
2023-06-19T07:14:34.052Z,85963.41
2023-06-19T07:17:00.237Z,85967.72
2023-06-19T07:19:26.546Z,85959.78
2023-06-19T07:21:52.759Z,85949.72
2023-06-19T07:24:18.987Z,85954.25
2023-06-19T07:26:45.184Z,85953.19
2023-06-19T07:29:11.376Z,85953.22
2023-06-19T07:31:37.537Z,85948.69
2023-06-19T07:34:03.705Z,85945.78
2023-06-19T07:36:29.864Z,85941.84
2023-06-19T07:38:56.034Z,85946.09
2023-06-19T07:41:22.174Z,85931.53
2023-06-19T07:43:48.319Z,85929.13
2023-06-19T07:46:14.504Z,85925.97
2023-06-19T07:48:40.659Z,85936.44
2023-06-19T07:51:06.798Z,85940.13
2023-06-19T07:53:32.942Z,85943.53
2023-06-19T07:55:59.093Z,85943.28
2023-06-19T07:58:25.246Z,85943.19
2023-06-19T08:00:51.459Z,85946.94
2023-06-19T08:03:17.701Z,85942.13
2023-06-19T08:05:43.994Z,85946.06
2023-06-19T08:08:10.157Z,85948.56
2023-06-19T08:10:36.334Z,85938.44
2023-06-19T08:13:02.502Z,85937.03
2023-06-19T08:15:28.672Z,85932.59
2023-06-19T08:17:54.933Z,85932.81
2023-06-19T08:20:21.153Z,85937.34
2023-06-19T08:22:47.360Z,85940.84
2023-06-19T08:25:13.521Z,85934.81
2023-06-19T08:27:39.685Z,85940.94
2023-06-19T08:30:05.851Z,85939.13
2023-06-19T08:32:32.067Z,85937.41
2023-06-19T08:34:58.264Z,85936.88
2023-06-19T08:37:24.430Z,85933.91
2023-06-19T08:39:50.618Z,85936.75
2023-06-19T08:42:16.765Z,85939.91
2023-06-19T08:44:42.922Z,85933.13
2023-06-19T08:47:09.089Z,85923.28
2023-06-19T08:49:35.241Z,85924.44
2023-06-19T08:52:01.420Z,85914.16
2023-06-19T08:54:27.578Z,85908.03
2023-06-19T08:56:53.802Z,85909.78
2023-06-19T08:59:19.946Z,85906.13
2023-06-19T09:01:46.084Z,85896.38
2023-06-19T09:04:12.329Z,85892.16
2023-06-19T09:06:38.682Z,85892.00
2023-06-19T09:09:04.878Z,85887.41
2023-06-19T09:11:31.032Z,85895.00
2023-06-19T09:13:57.194Z,85892.88
2023-06-19T09:16:23.559Z,85892.28
2023-06-19T09:18:49.756Z,85894.00
2023-06-19T09:21:15.906Z,85890.88
2023-06-19T09:23:42.065Z,85894.38
2023-06-19T09:26:08.225Z,85889.97
2023-06-19T09:28:34.435Z,85895.06
2023-06-19T09:31:00.614Z,85890.19
2023-06-19T09:33:26.933Z,85884.56
2023-06-19T09:35:53.128Z,85878.03
2023-06-19T09:38:19.288Z,85877.38
2023-06-19T09:40:45.524Z,85878.50
2023-06-19T09:43:11.678Z,85882.63
2023-06-19T09:45:37.807Z,85876.78
2023-06-19T09:48:04.003Z,85886.63
2023-06-19T09:50:30.257Z,85885.50
2023-06-19T09:52:56.416Z,85887.25
2023-06-19T09:55:22.549Z,85884.16
2023-06-19T09:57:48.712Z,85885.53
2023-06-19T10:00:14.917Z,85882.34
2023-06-19T10:02:41.211Z,85881.00
2023-06-19T10:05:07.445Z,85880.13
2023-06-19T10:07:33.596Z,85885.81
2023-06-19T10:09:59.756Z,85880.44
2023-06-19T10:12:25.910Z,85888.25
2023-06-19T10:14:52.104Z,85884.31
2023-06-19T10:17:18.330Z,85887.03
2023-06-19T10:19:44.520Z,85885.72
2023-06-19T10:22:10.674Z,85891.34
2023-06-19T10:24:37.119Z,85886.50
2023-06-19T10:27:03.307Z,85878.72
2023-06-19T10:29:29.559Z,85886.38
2023-06-19T10:31:56.038Z,85889.22
2023-06-19T10:34:22.204Z,85880.53
2023-06-19T10:36:48.343Z,85878.84
2023-06-19T10:39:14.479Z,85882.53
2023-06-19T10:41:40.641Z,85874.59
2023-06-19T10:44:06.816Z,85872.00
2023-06-19T10:46:33.084Z,85867.63
2023-06-19T10:48:59.650Z,85869.47
2023-06-19T10:51:25.797Z,85872.38
2023-06-19T10:53:51.952Z,85868.34
2023-06-19T10:56:18.156Z,85867.44
2023-06-19T10:58:44.322Z,85869.13
2023-06-19T11:01:10.494Z,85867.44
2023-06-19T11:03:36.748Z,85875.75
2023-06-19T11:06:02.938Z,85868.84
2023-06-19T11:08:29.128Z,85875.72
2023-06-19T11:10:55.298Z,85877.38
2023-06-19T11:13:21.457Z,85872.53
2023-06-19T11:15:47.728Z,85882.97
2023-06-19T11:18:13.952Z,85873.53
2023-06-19T11:20:40.128Z,85884.78
2023-06-19T11:23:06.259Z,85880.28
2023-06-19T11:25:32.395Z,85882.81
2023-06-19T11:27:58.560Z,85890.25
2023-06-19T11:30:24.840Z,85893.59
2023-06-19T11:32:51.323Z,85889.22
2023-06-19T11:35:17.511Z,85890.06
2023-06-19T11:37:43.718Z,85893.34
2023-06-19T11:40:09.904Z,85895.16
2023-06-19T11:42:36.079Z,85895.31
2023-06-19T11:45:02.219Z,85907.97
2023-06-19T11:47:28.390Z,85914.31
2023-06-19T11:49:54.559Z,85919.38
2023-06-19T11:52:20.728Z,85922.13
2023-06-19T11:54:46.899Z,85922.47
2023-06-19T11:57:13.050Z,85933.63
2023-06-19T11:59:39.185Z,85940.69
2023-06-19T12:02:05.454Z,85948.13
2023-06-19T12:04:31.949Z,85959.59
2023-06-19T12:06:58.236Z,85967.44
2023-06-19T12:09:24.371Z,85972.53
2023-06-19T12:11:50.531Z,85980.25
2023-06-19T12:14:16.699Z,85979.41
2023-06-19T12:16:42.893Z,85977.25
2023-06-19T12:19:09.042Z,85967.34
2023-06-19T12:21:39.485Z,85965.78
2023-06-19T12:24:07.417Z,85970.41
2023-06-19T12:26:33.585Z,85956.34
2023-06-19T12:28:59.731Z,85951.47
2023-06-19T12:31:25.932Z,85932.13
2023-06-19T12:33:52.156Z,85932.22
2023-06-19T12:36:18.306Z,85924.34
2023-06-19T12:38:44.456Z,85920.00
2023-06-19T12:41:10.632Z,85918.28
2023-06-19T12:43:36.787Z,85917.56
2023-06-19T12:46:02.981Z,85897.84
2023-06-19T12:48:29.194Z,85905.09
2023-06-19T12:50:55.353Z,85891.09
2023-06-19T12:53:21.515Z,85884.97
2023-06-19T12:56:00.746Z,85879.78
2023-06-19T12:58:29.139Z,85882.78
2023-06-19T13:00:55.292Z,85866.56
2023-06-19T13:03:21.531Z,85859.19
2023-06-19T13:05:47.740Z,85858.28
2023-06-19T13:08:13.890Z,85855.00
2023-06-19T13:10:40.019Z,85849.97
2023-06-19T13:13:06.169Z,85844.00
2023-06-19T13:15:32.314Z,85840.63
2023-06-19T13:17:58.531Z,85841.81
2023-06-19T13:20:24.980Z,85837.13
2023-06-19T13:22:51.446Z,85832.91
2023-06-19T13:25:17.593Z,85835.59
2023-06-19T13:27:43.717Z,85823.53
2023-06-19T13:30:09.871Z,85823.91
2023-06-19T13:32:36.099Z,85822.72
2023-06-19T13:35:02.313Z,85822.53
2023-06-19T13:37:28.509Z,85816.97
2023-06-19T13:39:54.647Z,85815.00
2023-06-19T13:42:20.801Z,85812.31
2023-06-19T13:44:48.305Z,85811.50
2023-06-19T13:47:16.745Z,85807.03
2023-06-19T13:49:42.938Z,85806.44
2023-06-19T13:52:09.225Z,85807.41
2023-06-19T13:54:35.460Z,85799.91
2023-06-19T13:57:01.617Z,85804.34
2023-06-19T13:59:27.773Z,85808.78
2023-06-19T14:01:53.939Z,85798.34
2023-06-19T14:04:20.082Z,85797.56
2023-06-19T14:06:46.218Z,85794.34
2023-06-19T14:09:12.368Z,85800.41
2023-06-19T14:11:38.526Z,85804.13
2023-06-19T14:14:04.691Z,85794.75
2023-06-19T14:16:30.874Z,85794.88
2023-06-19T14:18:57.126Z,85798.28
2023-06-19T14:21:23.330Z,85795.69
2023-06-19T14:23:49.470Z,85793.94
2023-06-19T14:26:15.694Z,85798.22
2023-06-19T14:28:41.864Z,85804.47
2023-06-19T14:31:08.010Z,85803.41
2023-06-19T14:33:34.187Z,85803.75
2023-06-19T14:36:00.371Z,85796.97
2023-06-19T14:38:26.502Z,85803.44
2023-06-19T14:40:52.648Z,85801.63
2023-06-19T14:43:18.821Z,85801.91
2023-06-19T14:45:44.993Z,85806.41
2023-06-19T14:48:11.261Z,85810.72
2023-06-19T14:50:37.514Z,85807.75
2023-06-19T14:53:03.712Z,85805.03
2023-06-19T14:55:29.900Z,85809.25
2023-06-19T14:57:56.057Z,85809.97
2023-06-19T15:00:22.346Z,85812.63
2023-06-19T15:02:48.634Z,85817.03
2023-06-19T15:05:14.804Z,85811.41
2023-06-19T15:07:40.978Z,85810.84
2023-06-19T15:10:07.138Z,85809.25
2023-06-19T15:12:33.332Z,85804.34
2023-06-19T15:14:59.492Z,85809.72
2023-06-19T15:17:25.670Z,85803.94
2023-06-19T15:19:51.822Z,85805.75
2023-06-19T15:22:17.987Z,85801.41
2023-06-19T15:24:44.223Z,85802.31
2023-06-19T15:27:10.641Z,85806.88
2023-06-19T15:29:36.863Z,85804.25
2023-06-19T15:32:03.012Z,85792.78
2023-06-19T15:34:29.147Z,85799.50
2023-06-19T15:36:55.311Z,85795.13
2023-06-19T15:39:21.469Z,85790.00
2023-06-19T15:41:47.664Z,85792.63
2023-06-19T15:44:13.817Z,85790.44
2023-06-19T15:46:40.037Z,85776.44
2023-06-19T15:49:07.093Z,85768.28
2023-06-19T15:51:34.131Z,85772.91
2023-06-19T15:54:00.276Z,85778.25
2023-06-19T15:56:26.441Z,85774.47
2023-06-19T15:58:52.605Z,85775.47
2023-06-19T16:01:18.862Z,85775.31
2023-06-19T16:03:45.126Z,85774.84
2023-06-19T16:06:11.412Z,85769.00
2023-06-19T16:08:37.637Z,85771.44
2023-06-19T16:11:03.800Z,85773.16
2023-06-19T16:13:29.936Z,85775.81
2023-06-19T16:15:56.123Z,85781.38
2023-06-19T16:18:22.355Z,85775.97
2023-06-19T16:20:48.522Z,85784.06
2023-06-19T16:23:14.655Z,85782.66
2023-06-19T16:25:40.794Z,85781.69
2023-06-19T16:28:06.948Z,85788.69
2023-06-19T16:30:33.117Z,85789.59
2023-06-19T16:32:59.327Z,85788.19
2023-06-19T16:35:25.634Z,85789.22
2023-06-19T16:37:51.816Z,85782.31
2023-06-19T16:40:17.968Z,85782.63
2023-06-19T16:42:44.102Z,85779.69
2023-06-19T16:45:10.244Z,85789.53
2023-06-19T16:47:36.450Z,85787.75
2023-06-19T16:50:02.610Z,85790.47
2023-06-19T16:52:28.801Z,85785.44
2023-06-19T16:54:54.991Z,85785.88
2023-06-19T16:57:21.160Z,85786.13
2023-06-19T16:59:47.327Z,85790.03
2023-06-19T17:02:13.492Z,85792.03
2023-06-19T17:04:39.660Z,85792.88
2023-06-19T17:07:05.819Z,85788.81
2023-06-19T17:09:31.969Z,85803.81
2023-06-19T17:11:58.143Z,85805.34
2023-06-19T17:14:24.283Z,85811.88
2023-06-19T17:16:50.455Z,85810.59
2023-06-19T17:19:16.628Z,85813.22
2023-06-19T17:21:42.787Z,85813.56
2023-06-19T17:24:09.001Z,85820.63
2023-06-19T17:26:35.230Z,85821.25
2023-06-19T17:29:01.498Z,85812.50
2023-06-19T17:31:27.675Z,85823.38
2023-06-19T17:33:53.827Z,85809.50
2023-06-19T17:36:20.022Z,85813.22
2023-06-19T17:38:46.188Z,85809.56
2023-06-19T17:41:12.357Z,85817.63
2023-06-19T17:43:38.535Z,85813.13
2023-06-19T17:46:04.700Z,85808.03
2023-06-19T17:48:30.884Z,85801.50
2023-06-19T17:50:57.022Z,85801.41
2023-06-19T17:53:23.178Z,85808.28
2023-06-19T17:55:49.302Z,85800.75
2023-06-19T17:58:15.447Z,85803.94
2023-06-19T18:00:41.621Z,85816.91
2023-06-19T18:03:07.811Z,85815.22
2023-06-19T18:05:34.016Z,85822.19
2023-06-19T18:08:00.172Z,85815.09
2023-06-19T18:10:26.449Z,85818.94
2023-06-19T18:12:52.825Z,85805.28
2023-06-19T18:15:18.990Z,85808.91
2023-06-19T18:17:45.196Z,85812.97
2023-06-19T18:20:11.499Z,85809.41
2023-06-19T18:22:37.667Z,85805.19
2023-06-19T18:25:03.814Z,85811.88
2023-06-19T18:27:29.954Z,85820.78
2023-06-19T18:29:56.125Z,85816.25
2023-06-19T18:32:22.317Z,85818.09
2023-06-19T18:34:48.478Z,85813.66
2023-06-19T18:37:14.657Z,85816.19
2023-06-19T18:39:40.845Z,85813.78
2023-06-19T18:42:06.982Z,85827.78
2023-06-19T18:44:33.169Z,85824.84
2023-06-19T18:46:59.331Z,85819.75
2023-06-19T18:49:25.725Z,85810.16
2023-06-19T18:51:51.916Z,85815.69
2023-06-19T18:54:18.089Z,85818.66
2023-06-19T18:56:44.239Z,85829.00
2023-06-19T18:59:10.389Z,85832.84
2023-06-19T19:01:36.569Z,85829.88
2023-06-19T19:04:02.748Z,85822.00
2023-06-19T19:06:28.916Z,85822.00
2023-06-19T19:08:55.066Z,85829.34
2023-06-19T19:11:21.216Z,85837.50
2023-06-19T19:13:47.350Z,85851.03
2023-06-19T19:16:13.538Z,85842.69
2023-06-19T19:18:39.689Z,85848.47
2023-06-19T19:21:05.858Z,85846.91
2023-06-19T19:23:32.007Z,85844.38
2023-06-19T19:25:58.139Z,85846.88
2023-06-19T19:28:24.282Z,85847.69
2023-06-19T19:30:50.438Z,85856.25
2023-06-19T19:33:16.693Z,85852.41
2023-06-19T19:35:42.862Z,85850.75
2023-06-19T19:38:09.015Z,85845.31
2023-06-19T19:40:35.160Z,85831.50
2023-06-19T19:43:01.293Z,85823.44
2023-06-19T19:45:27.495Z,85828.53
2023-06-19T19:47:53.716Z,85837.13
2023-06-19T19:50:19.915Z,85837.84
2023-06-19T19:52:46.057Z,85844.91
2023-06-19T19:55:12.228Z,85842.09
2023-06-19T19:57:38.394Z,85847.81
2023-06-19T20:00:04.560Z,85854.78
2023-06-19T20:02:30.753Z,85861.78
2023-06-19T20:04:56.985Z,85864.38
2023-06-19T20:07:23.194Z,85854.16
2023-06-19T20:09:49.365Z,85855.09
2023-06-19T20:12:20.585Z,85855.78
2023-06-19T20:14:48.258Z,85855.25
2023-06-19T20:17:14.391Z,85864.19
2023-06-19T20:19:40.526Z,85875.78
2023-06-19T20:22:06.680Z,85877.47
2023-06-19T20:24:33.244Z,85873.72
2023-06-19T20:26:59.467Z,85875.19
2023-06-19T20:29:25.633Z,85882.56
2023-06-19T20:31:51.786Z,85888.06
2023-06-19T20:34:17.942Z,85885.47
2023-06-19T20:36:44.097Z,85887.44
2023-06-19T20:39:10.228Z,85888.63
2023-06-19T20:41:36.377Z,85878.00
2023-06-19T20:44:02.545Z,85884.75
2023-06-19T20:46:28.720Z,85875.38
2023-06-19T20:48:54.873Z,85880.72
2023-06-19T20:51:21.010Z,85881.81
2023-06-19T20:53:47.146Z,85882.25
2023-06-19T20:56:13.316Z,85886.72
2023-06-19T20:58:39.465Z,85879.63
2023-06-19T21:01:05.714Z,85881.44
2023-06-19T21:03:31.946Z,85875.78
2023-06-19T21:05:58.190Z,85872.09
2023-06-19T21:08:24.365Z,85882.97
2023-06-19T21:10:50.499Z,85878.16
2023-06-19T21:13:22.436Z,85873.09
2023-06-19T21:15:49.169Z,85875.53
2023-06-19T21:18:15.306Z,85874.81
2023-06-19T21:20:41.429Z,85879.63
2023-06-19T21:23:07.637Z,85881.22
2023-06-19T21:25:33.834Z,85897.13
2023-06-19T21:27:59.998Z,85900.78
2023-06-19T21:30:26.379Z,85907.28
2023-06-19T21:32:52.868Z,85907.94
2023-06-19T21:35:19.040Z,85903.22
2023-06-19T21:37:45.211Z,85902.78
2023-06-19T21:40:11.338Z,85896.69
2023-06-19T21:42:37.482Z,85893.75
2023-06-19T21:45:03.629Z,85899.03
2023-06-19T21:47:29.811Z,85880.31
2023-06-19T21:49:56.033Z,85884.81
2023-06-19T21:52:22.184Z,85890.59
2023-06-19T21:54:48.386Z,85880.88
2023-06-19T21:57:14.549Z,85885.84
2023-06-19T21:59:40.693Z,85886.19
2023-06-19T22:02:06.826Z,85887.94
2023-06-19T22:04:32.963Z,85890.53
2023-06-19T22:06:59.108Z,85900.03
2023-06-19T22:09:25.316Z,85902.72
2023-06-19T22:11:51.451Z,85901.75
2023-06-19T22:14:17.581Z,85906.41
2023-06-19T22:16:43.740Z,85903.53
2023-06-19T22:19:09.910Z,85903.09
2023-06-19T22:21:36.072Z,85903.78
2023-06-19T22:24:02.319Z,85905.31
2023-06-19T22:26:28.501Z,85893.28
2023-06-19T22:28:54.651Z,85886.84
2023-06-19T22:31:20.855Z,85894.19
2023-06-19T22:33:47.047Z,85905.66
2023-06-19T22:36:13.237Z,85892.41
2023-06-19T22:38:39.371Z,85883.91
2023-06-19T22:41:05.625Z,85881.44
2023-06-19T22:43:31.804Z,85886.75
2023-06-19T22:45:58.005Z,85882.41
2023-06-19T22:48:24.174Z,85888.81
2023-06-19T22:50:50.322Z,85887.19
2023-06-19T22:53:16.489Z,85889.88
2023-06-19T22:55:42.636Z,85886.47
2023-06-19T22:58:08.786Z,85886.09
2023-06-19T23:00:34.968Z,85896.09
2023-06-19T23:03:01.277Z,85901.75
2023-06-19T23:05:27.638Z,85899.53
2023-06-19T23:07:53.922Z,85894.44
2023-06-19T23:10:20.071Z,85896.34
2023-06-19T23:12:46.224Z,85903.38
2023-06-19T23:15:12.373Z,85911.91
2023-06-19T23:17:38.551Z,85901.91
2023-06-19T23:20:04.744Z,85901.34
2023-06-19T23:22:30.889Z,85909.59
2023-06-19T23:24:57.024Z,85919.78
2023-06-19T23:27:23.193Z,85915.28
2023-06-19T23:29:49.430Z,85907.88
2023-06-19T23:32:15.573Z,85912.13
2023-06-19T23:34:41.731Z,85912.56
2023-06-19T23:37:07.927Z,85910.72
2023-06-19T23:39:34.100Z,85902.72
2023-06-19T23:42:00.280Z,85901.56
2023-06-19T23:44:26.441Z,85908.09
2023-06-19T23:46:52.656Z,85915.94
2023-06-19T23:49:18.852Z,85906.75
2023-06-19T23:51:44.991Z,85917.13
2023-06-19T23:54:11.139Z,85920.50
2023-06-19T23:56:37.297Z,85907.50
2023-06-19T23:59:03.466Z,85903.59
